sensor_id;sensor_type;location;lat;lon;timestamp;P1;durP1;ratioP1;P2;durP2;ratioP2
38779;SDS011;29273;49.962;9.768;2023-02-15T00:00:02;11.48;;;6.50;;
38779;SDS011;29273;49.962;9.768;2023-02-15T00:04:58;9.82;;;5.97;;
38779;SDS011;29273;49.962;9.768;2023-02-15T00:07:24;9.07;;;6.10;;
38779;SDS011;29273;49.962;9.768;2023-02-15T00:09:49;11.38;;;6.72;;
38779;SDS011;29273;49.962;9.768;2023-02-15T00:12:15;11.52;;;6.57;;
38779;SDS011;29273;49.962;9.768;2023-02-15T00:14:41;10.93;;;6.75;;
38779;SDS011;29273;49.962;9.768;2023-02-15T00:17:07;10.15;;;6.32;;
38779;SDS011;29273;49.962;9.768;2023-02-15T00:19:32;10.40;;;6.60;;
38779;SDS011;29273;49.962;9.768;2023-02-15T00:21:58;11.00;;;6.55;;
38779;SDS011;29273;49.962;9.768;2023-02-15T00:24:24;10.48;;;6.95;;
38779;SDS011;29273;49.962;9.768;2023-02-15T00:26:49;11.45;;;7.40;;
38779;SDS011;29273;49.962;9.768;2023-02-15T00:29:16;11.85;;;7.50;;
38779;SDS011;29273;49.962;9.768;2023-02-15T00:31:43;10.95;;;6.95;;
38779;SDS011;29273;49.962;9.768;2023-02-15T00:36:37;10.50;;;6.75;;
38779;SDS011;29273;49.962;9.768;2023-02-15T00:39:03;13.38;;;7.78;;
38779;SDS011;29273;49.962;9.768;2023-02-15T00:41:30;11.60;;;6.95;;
38779;SDS011;29273;49.962;9.768;2023-02-15T00:43:56;11.05;;;7.00;;
38779;SDS011;29273;49.962;9.768;2023-02-15T00:46:22;12.13;;;7.50;;
38779;SDS011;29273;49.962;9.768;2023-02-15T00:48:47;12.38;;;7.22;;
38779;SDS011;29273;49.962;9.768;2023-02-15T00:51:13;10.77;;;6.85;;
38779;SDS011;29273;49.962;9.768;2023-02-15T00:53:39;11.30;;;7.38;;
38779;SDS011;29273;49.962;9.768;2023-02-15T00:56:04;10.32;;;6.78;;
38779;SDS011;29273;49.962;9.768;2023-02-15T00:58:30;12.10;;;7.15;;
38779;SDS011;29273;49.962;9.768;2023-02-15T01:01:01;12.57;;;7.57;;
38779;SDS011;29273;49.962;9.768;2023-02-15T01:03:28;11.77;;;7.13;;
38779;SDS011;29273;49.962;9.768;2023-02-15T01:05:53;12.02;;;7.60;;
38779;SDS011;29273;49.962;9.768;2023-02-15T01:08:19;13.10;;;7.75;;
38779;SDS011;29273;49.962;9.768;2023-02-15T01:10:44;11.63;;;7.05;;
38779;SDS011;29273;49.962;9.768;2023-02-15T01:13:12;10.43;;;6.78;;
38779;SDS011;29273;49.962;9.768;2023-02-15T01:15:39;12.60;;;7.47;;
38779;SDS011;29273;49.962;9.768;2023-02-15T01:18:04;12.10;;;7.28;;
38779;SDS011;29273;49.962;9.768;2023-02-15T01:20:33;13.18;;;7.47;;
38779;SDS011;29273;49.962;9.768;2023-02-15T01:23:01;11.73;;;7.30;;
38779;SDS011;29273;49.962;9.768;2023-02-15T01:25:27;12.43;;;6.90;;
38779;SDS011;29273;49.962;9.768;2023-02-15T01:27:54;11.35;;;7.20;;
38779;SDS011;29273;49.962;9.768;2023-02-15T01:30:19;10.32;;;6.95;;
38779;SDS011;29273;49.962;9.768;2023-02-15T01:32:45;10.27;;;6.43;;
38779;SDS011;29273;49.962;9.768;2023-02-15T01:35:10;11.07;;;6.45;;
38779;SDS011;29273;49.962;9.768;2023-02-15T01:37:36;10.55;;;6.60;;
38779;SDS011;29273;49.962;9.768;2023-02-15T01:40:04;10.02;;;6.45;;
38779;SDS011;29273;49.962;9.768;2023-02-15T01:42:31;10.45;;;6.47;;
38779;SDS011;29273;49.962;9.768;2023-02-15T01:44:58;11.95;;;6.57;;
38779;SDS011;29273;49.962;9.768;2023-02-15T01:53:02;10.10;;;6.40;;
38779;SDS011;29273;49.962;9.768;2023-02-15T01:55:33;8.80;;;6.07;;
38779;SDS011;29273;49.962;9.768;2023-02-15T01:58:03;10.38;;;6.70;;
38779;SDS011;29273;49.962;9.768;2023-02-15T02:00:29;9.40;;;6.43;;
38779;SDS011;29273;49.962;9.768;2023-02-15T02:02:55;9.55;;;6.30;;
38779;SDS011;29273;49.962;9.768;2023-02-15T02:05:24;10.52;;;6.72;;
38779;SDS011;29273;49.962;9.768;2023-02-15T02:07:50;10.32;;;6.40;;
38779;SDS011;29273;49.962;9.768;2023-02-15T02:10:19;9.60;;;6.32;;
38779;SDS011;29273;49.962;9.768;2023-02-15T02:12:49;11.25;;;6.95;;
38779;SDS011;29273;49.962;9.768;2023-02-15T02:15:18;10.55;;;6.75;;
38779;SDS011;29273;49.962;9.768;2023-02-15T02:35:11;10.40;;;6.60;;
38779;SDS011;29273;49.962;9.768;2023-02-15T02:40:17;11.40;;;6.82;;
38779;SDS011;29273;49.962;9.768;2023-02-15T02:42:54;11.20;;;6.93;;
38779;SDS011;29273;49.962;9.768;2023-02-15T02:45:32;9.77;;;6.77;;
38779;SDS011;29273;49.962;9.768;2023-02-15T02:48:13;11.05;;;7.10;;
38779;SDS011;29273;49.962;9.768;2023-02-15T02:50:44;10.27;;;6.80;;
38779;SDS011;29273;49.962;9.768;2023-02-15T02:53:09;10.38;;;6.80;;
38779;SDS011;29273;49.962;9.768;2023-02-15T02:55:41;12.77;;;8.07;;
38779;SDS011;29273;49.962;9.768;2023-02-15T03:00:41;10.80;;;7.25;;
38779;SDS011;29273;49.962;9.768;2023-02-15T03:03:24;11.52;;;7.85;;
38779;SDS011;29273;49.962;9.768;2023-02-15T03:05:56;11.90;;;7.60;;
38779;SDS011;29273;49.962;9.768;2023-02-15T03:08:27;10.27;;;7.22;;
38779;SDS011;29273;49.962;9.768;2023-02-15T03:10:59;10.63;;;6.60;;
38779;SDS011;29273;49.962;9.768;2023-02-15T03:13:26;10.75;;;6.65;;
38779;SDS011;29273;49.962;9.768;2023-02-15T03:15:53;8.98;;;6.07;;
38779;SDS011;29273;49.962;9.768;2023-02-15T03:18:41;8.52;;;6.07;;
38779;SDS011;29273;49.962;9.768;2023-02-15T03:21:20;9.30;;;5.85;;
38779;SDS011;29273;49.962;9.768;2023-02-15T03:23:52;9.75;;;6.15;;
38779;SDS011;29273;49.962;9.768;2023-02-15T03:26:23;10.98;;;6.78;;
38779;SDS011;29273;49.962;9.768;2023-02-15T03:28:50;13.50;;;8.35;;
38779;SDS011;29273;49.962;9.768;2023-02-15T03:31:21;14.02;;;9.02;;
38779;SDS011;29273;49.962;9.768;2023-02-15T03:33:58;11.20;;;7.55;;
38779;SDS011;29273;49.962;9.768;2023-02-15T03:36:43;10.95;;;6.93;;
38779;SDS011;29273;49.962;9.768;2023-02-15T03:39:19;9.77;;;6.25;;
38779;SDS011;29273;49.962;9.768;2023-02-15T03:42:31;9.68;;;6.10;;
38779;SDS011;29273;49.962;9.768;2023-02-15T03:44:57;12.38;;;8.18;;
38779;SDS011;29273;49.962;9.768;2023-02-15T03:47:30;10.50;;;7.05;;
38779;SDS011;29273;49.962;9.768;2023-02-15T03:50:03;9.68;;;6.13;;
38779;SDS011;29273;49.962;9.768;2023-02-15T03:52:54;9.57;;;6.10;;
38779;SDS011;29273;49.962;9.768;2023-02-15T03:55:21;10.30;;;6.63;;
38779;SDS011;29273;49.962;9.768;2023-02-15T03:57:47;10.80;;;6.72;;
38779;SDS011;29273;49.962;9.768;2023-02-15T04:00:31;9.95;;;6.78;;
38779;SDS011;29273;49.962;9.768;2023-02-15T04:03:33;10.55;;;6.65;;
38779;SDS011;29273;49.962;9.768;2023-02-15T04:06:04;11.27;;;6.88;;
38779;SDS011;29273;49.962;9.768;2023-02-15T04:08:30;10.90;;;6.70;;
38779;SDS011;29273;49.962;9.768;2023-02-15T04:11:14;11.23;;;7.30;;
38779;SDS011;29273;49.962;9.768;2023-02-15T04:13:40;12.38;;;7.18;;
38779;SDS011;29273;49.962;9.768;2023-02-15T04:16:05;10.90;;;6.65;;
38779;SDS011;29273;49.962;9.768;2023-02-15T04:18:36;11.00;;;7.28;;
38779;SDS011;29273;49.962;9.768;2023-02-15T04:21:22;11.32;;;6.60;;
38779;SDS011;29273;49.962;9.768;2023-02-15T04:24:08;11.73;;;7.15;;
38779;SDS011;29273;49.962;9.768;2023-02-15T04:26:53;9.25;;;6.13;;
38779;SDS011;29273;49.962;9.768;2023-02-15T04:29:19;9.18;;;6.50;;
38779;SDS011;29273;49.962;9.768;2023-02-15T04:31:46;10.05;;;6.55;;
38779;SDS011;29273;49.962;9.768;2023-02-15T04:34:12;11.02;;;7.25;;
38779;SDS011;29273;49.962;9.768;2023-02-15T04:36:38;11.20;;;6.95;;
38779;SDS011;29273;49.962;9.768;2023-02-15T04:39:04;12.13;;;7.65;;
38779;SDS011;29273;49.962;9.768;2023-02-15T04:41:30;11.48;;;7.28;;
38779;SDS011;29273;49.962;9.768;2023-02-15T04:43:56;11.60;;;6.97;;
38779;SDS011;29273;49.962;9.768;2023-02-15T04:46:22;12.25;;;7.57;;
38779;SDS011;29273;49.962;9.768;2023-02-15T04:48:48;12.68;;;7.43;;
38779;SDS011;29273;49.962;9.768;2023-02-15T04:51:13;12.00;;;7.50;;
38779;SDS011;29273;49.962;9.768;2023-02-15T04:53:39;12.13;;;7.43;;
38779;SDS011;29273;49.962;9.768;2023-02-15T04:56:05;11.82;;;7.38;;
38779;SDS011;29273;49.962;9.768;2023-02-15T04:58:30;11.25;;;7.32;;
38779;SDS011;29273;49.962;9.768;2023-02-15T05:00:56;11.40;;;7.35;;
38779;SDS011;29273;49.962;9.768;2023-02-15T05:03:22;11.77;;;7.72;;
38779;SDS011;29273;49.962;9.768;2023-02-15T05:05:48;13.18;;;8.30;;
38779;SDS011;29273;49.962;9.768;2023-02-15T05:08:13;14.98;;;9.70;;
38779;SDS011;29273;49.962;9.768;2023-02-15T05:10:39;14.05;;;8.20;;
38779;SDS011;29273;49.962;9.768;2023-02-15T05:13:04;12.90;;;8.32;;
38779;SDS011;29273;49.962;9.768;2023-02-15T05:15:30;12.77;;;8.05;;
38779;SDS011;29273;49.962;9.768;2023-02-15T05:17:55;11.55;;;7.55;;
38779;SDS011;29273;49.962;9.768;2023-02-15T05:20:21;11.70;;;7.68;;
38779;SDS011;29273;49.962;9.768;2023-02-15T05:22:46;11.88;;;7.57;;
38779;SDS011;29273;49.962;9.768;2023-02-15T05:25:12;11.82;;;7.80;;
38779;SDS011;29273;49.962;9.768;2023-02-15T05:27:56;12.77;;;7.93;;
38779;SDS011;29273;49.962;9.768;2023-02-15T05:30:40;13.57;;;8.02;;
38779;SDS011;29273;49.962;9.768;2023-02-15T05:33:06;14.13;;;8.63;;
38779;SDS011;29273;49.962;9.768;2023-02-15T05:35:32;14.15;;;8.50;;
38779;SDS011;29273;49.962;9.768;2023-02-15T05:37:59;11.45;;;7.45;;
38779;SDS011;29273;49.962;9.768;2023-02-15T05:40:24;13.40;;;8.88;;
38779;SDS011;29273;49.962;9.768;2023-02-15T05:42:50;12.32;;;8.30;;
38779;SDS011;29273;49.962;9.768;2023-02-15T05:45:15;12.10;;;8.13;;
38779;SDS011;29273;49.962;9.768;2023-02-15T05:47:41;13.70;;;8.43;;
38779;SDS011;29273;49.962;9.768;2023-02-15T05:50:07;12.90;;;8.07;;
38779;SDS011;29273;49.962;9.768;2023-02-15T05:52:33;13.68;;;8.77;;
38779;SDS011;29273;49.962;9.768;2023-02-15T05:54:59;11.98;;;7.68;;
38779;SDS011;29273;49.962;9.768;2023-02-15T05:57:26;12.57;;;7.78;;
38779;SDS011;29273;49.962;9.768;2023-02-15T05:59:51;11.25;;;7.32;;
38779;SDS011;29273;49.962;9.768;2023-02-15T06:02:17;12.15;;;7.32;;
38779;SDS011;29273;49.962;9.768;2023-02-15T06:04:43;11.43;;;7.00;;
38779;SDS011;29273;49.962;9.768;2023-02-15T06:07:09;10.43;;;6.95;;
38779;SDS011;29273;49.962;9.768;2023-02-15T06:09:34;10.90;;;7.15;;
38779;SDS011;29273;49.962;9.768;2023-02-15T06:12:00;10.32;;;6.63;;
38779;SDS011;29273;49.962;9.768;2023-02-15T06:14:25;8.57;;;5.93;;
38779;SDS011;29273;49.962;9.768;2023-02-15T06:16:51;9.27;;;6.35;;
38779;SDS011;29273;49.962;9.768;2023-02-15T06:19:16;10.80;;;6.68;;
38779;SDS011;29273;49.962;9.768;2023-02-15T06:21:42;9.77;;;6.30;;
38779;SDS011;29273;49.962;9.768;2023-02-15T06:24:08;10.23;;;6.30;;
38779;SDS011;29273;49.962;9.768;2023-02-15T06:26:34;9.10;;;6.35;;
38779;SDS011;29273;49.962;9.768;2023-02-15T06:28:59;10.25;;;7.13;;
38779;SDS011;29273;49.962;9.768;2023-02-15T06:31:25;10.52;;;7.13;;
38779;SDS011;29273;49.962;9.768;2023-02-15T06:33:50;11.90;;;7.63;;
38779;SDS011;29273;49.962;9.768;2023-02-15T06:36:16;13.10;;;8.25;;
38779;SDS011;29273;49.962;9.768;2023-02-15T06:38:41;13.80;;;8.85;;
38779;SDS011;29273;49.962;9.768;2023-02-15T06:41:07;15.15;;;9.75;;
38779;SDS011;29273;49.962;9.768;2023-02-15T06:43:32;13.68;;;8.55;;
38779;SDS011;29273;49.962;9.768;2023-02-15T06:45:59;14.20;;;9.32;;
38779;SDS011;29273;49.962;9.768;2023-02-15T06:48:25;15.05;;;9.38;;
38779;SDS011;29273;49.962;9.768;2023-02-15T06:50:51;14.57;;;9.27;;
38779;SDS011;29273;49.962;9.768;2023-02-15T06:53:16;13.07;;;8.95;;
38779;SDS011;29273;49.962;9.768;2023-02-15T06:55:42;14.02;;;8.75;;
38779;SDS011;29273;49.962;9.768;2023-02-15T06:58:07;12.20;;;7.88;;
38779;SDS011;29273;49.962;9.768;2023-02-15T07:00:33;12.15;;;8.02;;
38779;SDS011;29273;49.962;9.768;2023-02-15T07:02:58;11.07;;;7.38;;
38779;SDS011;29273;49.962;9.768;2023-02-15T07:05:25;11.88;;;7.97;;
38779;SDS011;29273;49.962;9.768;2023-02-15T07:07:56;11.70;;;8.05;;
38779;SDS011;29273;49.962;9.768;2023-02-15T07:10:22;13.63;;;8.43;;
38779;SDS011;29273;49.962;9.768;2023-02-15T07:12:48;11.10;;;7.43;;
38779;SDS011;29273;49.962;9.768;2023-02-15T07:15:14;10.75;;;7.28;;
38779;SDS011;29273;49.962;9.768;2023-02-15T07:17:41;10.60;;;7.18;;
38779;SDS011;29273;49.962;9.768;2023-02-15T07:20:14;11.18;;;7.15;;
38779;SDS011;29273;49.962;9.768;2023-02-15T07:22:42;11.15;;;7.47;;
38779;SDS011;29273;49.962;9.768;2023-02-15T07:25:08;11.90;;;7.95;;
38779;SDS011;29273;49.962;9.768;2023-02-15T07:27:35;11.68;;;7.82;;
38779;SDS011;29273;49.962;9.768;2023-02-15T07:30:01;11.48;;;7.90;;
38779;SDS011;29273;49.962;9.768;2023-02-15T07:32:28;11.85;;;7.63;;
38779;SDS011;29273;49.962;9.768;2023-02-15T07:34:54;10.63;;;7.35;;
38779;SDS011;29273;49.962;9.768;2023-02-15T07:37:20;10.43;;;7.15;;
38779;SDS011;29273;49.962;9.768;2023-02-15T07:39:45;10.27;;;7.18;;
38779;SDS011;29273;49.962;9.768;2023-02-15T07:42:11;11.15;;;7.15;;
38779;SDS011;29273;49.962;9.768;2023-02-15T07:44:36;9.75;;;6.70;;
38779;SDS011;29273;49.962;9.768;2023-02-15T07:47:02;9.50;;;6.55;;
38779;SDS011;29273;49.962;9.768;2023-02-15T07:49:27;9.32;;;6.50;;
38779;SDS011;29273;49.962;9.768;2023-02-15T07:51:53;8.93;;;6.30;;
38779;SDS011;29273;49.962;9.768;2023-02-15T07:54:18;10.25;;;6.78;;
38779;SDS011;29273;49.962;9.768;2023-02-15T07:56:44;10.25;;;6.97;;
38779;SDS011;29273;49.962;9.768;2023-02-15T07:59:09;9.32;;;6.38;;
38779;SDS011;29273;49.962;9.768;2023-02-15T08:01:36;9.40;;;6.53;;
38779;SDS011;29273;49.962;9.768;2023-02-15T08:04:03;9.30;;;6.40;;
38779;SDS011;29273;49.962;9.768;2023-02-15T08:06:32;9.65;;;6.57;;
38779;SDS011;29273;49.962;9.768;2023-02-15T08:08:59;9.15;;;6.38;;
38779;SDS011;29273;49.962;9.768;2023-02-15T08:11:27;8.48;;;6.40;;
38779;SDS011;29273;49.962;9.768;2023-02-15T08:19:02;10.55;;;6.85;;
38779;SDS011;29273;49.962;9.768;2023-02-15T08:21:40;9.10;;;6.40;;
38779;SDS011;29273;49.962;9.768;2023-02-15T08:24:07;9.90;;;6.70;;
38779;SDS011;29273;49.962;9.768;2023-02-15T08:26:34;10.48;;;6.50;;
38779;SDS011;29273;49.962;9.768;2023-02-15T08:29:00;9.57;;;6.53;;
38779;SDS011;29273;49.962;9.768;2023-02-15T08:31:27;8.98;;;6.88;;
38779;SDS011;29273;49.962;9.768;2023-02-15T08:33:54;10.35;;;6.82;;
38779;SDS011;29273;49.962;9.768;2023-02-15T08:36:22;9.13;;;6.30;;
38779;SDS011;29273;49.962;9.768;2023-02-15T08:38:49;8.77;;;6.55;;
38779;SDS011;29273;49.962;9.768;2023-02-15T08:41:25;9.30;;;6.47;;
38779;SDS011;29273;49.962;9.768;2023-02-15T08:43:55;12.38;;;7.95;;
38779;SDS011;29273;49.962;9.768;2023-02-15T08:46:23;11.05;;;7.43;;
38779;SDS011;29273;49.962;9.768;2023-02-15T08:48:50;10.73;;;7.38;;
38779;SDS011;29273;49.962;9.768;2023-02-15T08:51:20;13.93;;;8.35;;
38779;SDS011;29273;49.962;9.768;2023-02-15T08:53:48;13.10;;;8.97;;
38779;SDS011;29273;49.962;9.768;2023-02-15T08:56:16;12.00;;;8.20;;
38779;SDS011;29273;49.962;9.768;2023-02-15T08:58:49;12.82;;;9.00;;
38779;SDS011;29273;49.962;9.768;2023-02-15T09:01:16;12.63;;;8.50;;
38779;SDS011;29273;49.962;9.768;2023-02-15T09:03:44;12.27;;;9.07;;
38779;SDS011;29273;49.962;9.768;2023-02-15T09:06:10;12.85;;;8.25;;
38779;SDS011;29273;49.962;9.768;2023-02-15T09:08:37;12.70;;;8.55;;
38779;SDS011;29273;49.962;9.768;2023-02-15T09:11:12;14.70;;;9.02;;
38779;SDS011;29273;49.962;9.768;2023-02-15T09:13:47;13.20;;;8.73;;
38779;SDS011;29273;49.962;9.768;2023-02-15T09:16:14;11.10;;;7.45;;
38779;SDS011;29273;49.962;9.768;2023-02-15T09:18:42;13.15;;;8.63;;
38779;SDS011;29273;49.962;9.768;2023-02-15T09:21:11;12.73;;;8.20;;
38779;SDS011;29273;49.962;9.768;2023-02-15T09:23:39;11.87;;;7.70;;
38779;SDS011;29273;49.962;9.768;2023-02-15T09:26:07;11.57;;;7.63;;
38779;SDS011;29273;49.962;9.768;2023-02-15T09:28:34;11.60;;;7.72;;
38779;SDS011;29273;49.962;9.768;2023-02-15T09:33:43;12.38;;;8.73;;
38779;SDS011;29273;49.962;9.768;2023-02-15T09:36:15;13.20;;;8.82;;
38779;SDS011;29273;49.962;9.768;2023-02-15T09:38:43;11.55;;;8.07;;
38779;SDS011;29273;49.962;9.768;2023-02-15T09:41:17;10.95;;;7.55;;
38779;SDS011;29273;49.962;9.768;2023-02-15T09:49:49;11.35;;;7.60;;
38779;SDS011;29273;49.962;9.768;2023-02-15T09:56:15;13.68;;;8.73;;
38779;SDS011;29273;49.962;9.768;2023-02-15T09:58:56;14.02;;;9.18;;
38779;SDS011;29273;49.962;9.768;2023-02-15T10:07:17;10.43;;;7.15;;
38779;SDS011;29273;49.962;9.768;2023-02-15T10:09:57;11.40;;;7.57;;
38779;SDS011;29273;49.962;9.768;2023-02-15T10:12:49;10.05;;;6.95;;
38779;SDS011;29273;49.962;9.768;2023-02-15T10:15:34;11.00;;;7.30;;
38779;SDS011;29273;49.962;9.768;2023-02-15T10:18:22;10.40;;;7.15;;
38779;SDS011;29273;49.962;9.768;2023-02-15T10:24:06;11.07;;;6.90;;
38779;SDS011;29273;49.962;9.768;2023-02-15T10:26:50;11.07;;;7.32;;
38779;SDS011;29273;49.962;9.768;2023-02-15T10:29:30;10.98;;;7.25;;
38779;SDS011;29273;49.962;9.768;2023-02-15T10:32:16;11.88;;;7.93;;
38779;SDS011;29273;49.962;9.768;2023-02-15T10:35:01;9.30;;;6.70;;
38779;SDS011;29273;49.962;9.768;2023-02-15T10:37:53;10.43;;;7.28;;
38779;SDS011;29273;49.962;9.768;2023-02-15T10:43:20;10.27;;;6.72;;
38779;SDS011;29273;49.962;9.768;2023-02-15T10:46:17;11.65;;;7.45;;
38779;SDS011;29273;49.962;9.768;2023-02-15T10:56:57;9.77;;;6.72;;
38779;SDS011;29273;49.962;9.768;2023-02-15T11:05:51;10.25;;;7.00;;
38779;SDS011;29273;49.962;9.768;2023-02-15T11:08:28;9.18;;;6.63;;
38779;SDS011;29273;49.962;9.768;2023-02-15T11:10:58;8.90;;;6.47;;
38779;SDS011;29273;49.962;9.768;2023-02-15T11:13:27;11.27;;;7.47;;
38779;SDS011;29273;49.962;9.768;2023-02-15T11:16:11;10.77;;;7.35;;
38779;SDS011;29273;49.962;9.768;2023-02-15T11:18:46;10.45;;;7.15;;
38779;SDS011;29273;49.962;9.768;2023-02-15T11:21:31;11.10;;;7.32;;
38779;SDS011;29273;49.962;9.768;2023-02-15T11:24:10;13.82;;;8.02;;
38779;SDS011;29273;49.962;9.768;2023-02-15T11:26:38;11.02;;;8.25;;
38779;SDS011;29273;49.962;9.768;2023-02-15T11:29:13;12.27;;;8.25;;
38779;SDS011;29273;49.962;9.768;2023-02-15T11:31:53;11.15;;;7.55;;
38779;SDS011;29273;49.962;9.768;2023-02-15T11:34:21;11.52;;;7.75;;
38779;SDS011;29273;49.962;9.768;2023-02-15T11:36:54;11.63;;;8.13;;
38779;SDS011;29273;49.962;9.768;2023-02-15T11:39:23;10.57;;;7.35;;
38779;SDS011;29273;49.962;9.768;2023-02-15T11:41:55;12.18;;;8.20;;
38779;SDS011;29273;49.962;9.768;2023-02-15T11:46:56;11.27;;;7.88;;
38779;SDS011;29273;49.962;9.768;2023-02-15T11:49:31;10.98;;;7.90;;
38779;SDS011;29273;49.962;9.768;2023-02-15T11:51:59;12.88;;;9.05;;
38779;SDS011;29273;49.962;9.768;2023-02-15T11:54:34;12.60;;;8.55;;
38779;SDS011;29273;49.962;9.768;2023-02-15T11:57:17;12.38;;;8.32;;
38779;SDS011;29273;49.962;9.768;2023-02-15T11:59:52;11.98;;;8.20;;
38779;SDS011;29273;49.962;9.768;2023-02-15T12:02:23;11.82;;;8.48;;
38779;SDS011;29273;49.962;9.768;2023-02-15T12:04:54;10.85;;;7.82;;
38779;SDS011;29273;49.962;9.768;2023-02-15T12:10:25;14.18;;;8.45;;
38779;SDS011;29273;49.962;9.768;2023-02-15T12:13:09;11.38;;;7.80;;
38779;SDS011;29273;49.962;9.768;2023-02-15T12:15:39;11.05;;;7.90;;
38779;SDS011;29273;49.962;9.768;2023-02-15T12:21:06;10.77;;;7.55;;
38779;SDS011;29273;49.962;9.768;2023-02-15T12:23:56;14.27;;;9.40;;
38779;SDS011;29273;49.962;9.768;2023-02-15T12:26:29;12.40;;;8.68;;
38779;SDS011;29273;49.962;9.768;2023-02-15T12:29:15;14.38;;;8.85;;
38779;SDS011;29273;49.962;9.768;2023-02-15T12:31:45;14.80;;;10.05;;
38779;SDS011;29273;49.962;9.768;2023-02-15T12:36:55;13.77;;;8.32;;
38779;SDS011;29273;49.962;9.768;2023-02-15T12:39:30;11.75;;;7.95;;
38779;SDS011;29273;49.962;9.768;2023-02-15T12:41:57;10.25;;;7.38;;
38779;SDS011;29273;49.962;9.768;2023-02-15T12:44:35;12.82;;;8.88;;
38779;SDS011;29273;49.962;9.768;2023-02-15T12:47:03;11.52;;;8.35;;
38779;SDS011;29273;49.962;9.768;2023-02-15T12:49:41;13.07;;;8.65;;
38779;SDS011;29273;49.962;9.768;2023-02-15T12:54:48;13.88;;;9.30;;
38779;SDS011;29273;49.962;9.768;2023-02-15T12:57:24;12.45;;;8.65;;
38779;SDS011;29273;49.962;9.768;2023-02-15T13:04:54;14.23;;;9.40;;
38779;SDS011;29273;49.962;9.768;2023-02-15T13:07:21;14.38;;;9.10;;
38779;SDS011;29273;49.962;9.768;2023-02-15T13:09:48;13.93;;;8.93;;
38779;SDS011;29273;49.962;9.768;2023-02-15T13:12:21;14.45;;;9.65;;
38779;SDS011;29273;49.962;9.768;2023-02-15T13:14:51;14.30;;;10.10;;
38779;SDS011;29273;49.962;9.768;2023-02-15T13:17:52;13.73;;;9.50;;
38779;SDS011;29273;49.962;9.768;2023-02-15T13:20:17;12.50;;;8.70;;
38779;SDS011;29273;49.962;9.768;2023-02-15T13:22:47;15.90;;;9.93;;
38779;SDS011;29273;49.962;9.768;2023-02-15T13:25:17;12.32;;;8.75;;
38779;SDS011;29273;49.962;9.768;2023-02-15T13:27:46;14.52;;;9.30;;
38779;SDS011;29273;49.962;9.768;2023-02-15T13:30:22;11.52;;;8.45;;
38779;SDS011;29273;49.962;9.768;2023-02-15T13:32:48;13.75;;;9.05;;
38779;SDS011;29273;49.962;9.768;2023-02-15T13:35:17;12.60;;;8.80;;
38779;SDS011;29273;49.962;9.768;2023-02-15T13:38:06;13.45;;;9.48;;
38779;SDS011;29273;49.962;9.768;2023-02-15T13:40:35;12.55;;;8.60;;
38779;SDS011;29273;49.962;9.768;2023-02-15T13:43:18;11.10;;;7.45;;
38779;SDS011;29273;49.962;9.768;2023-02-15T13:57:14;12.35;;;8.77;;
38779;SDS011;29273;49.962;9.768;2023-02-15T14:11:33;12.57;;;8.68;;
38779;SDS011;29273;49.962;9.768;2023-02-15T14:14:22;12.48;;;8.52;;
38779;SDS011;29273;49.962;9.768;2023-02-15T14:17:24;12.70;;;7.90;;
38779;SDS011;29273;49.962;9.768;2023-02-15T14:20:17;11.10;;;8.07;;
38779;SDS011;29273;49.962;9.768;2023-02-15T14:23:13;12.40;;;8.85;;
38779;SDS011;29273;49.962;9.768;2023-02-15T14:25:57;14.75;;;9.52;;
38779;SDS011;29273;49.962;9.768;2023-02-15T14:28:31;14.05;;;9.32;;
38779;SDS011;29273;49.962;9.768;2023-02-15T14:31:07;13.38;;;8.60;;
38779;SDS011;29273;49.962;9.768;2023-02-15T14:33:39;14.40;;;9.60;;
38779;SDS011;29273;49.962;9.768;2023-02-15T14:36:17;14.30;;;9.02;;
38779;SDS011;29273;49.962;9.768;2023-02-15T14:47:38;14.10;;;9.43;;
38779;SDS011;29273;49.962;9.768;2023-02-15T14:55:47;15.25;;;9.40;;
38779;SDS011;29273;49.962;9.768;2023-02-15T14:58:35;13.82;;;9.07;;
38779;SDS011;29273;49.962;9.768;2023-02-15T15:04:02;13.40;;;9.25;;
38779;SDS011;29273;49.962;9.768;2023-02-15T15:06:33;12.68;;;8.73;;
38779;SDS011;29273;49.962;9.768;2023-02-15T15:11:54;13.27;;;9.10;;
38779;SDS011;29273;49.962;9.768;2023-02-15T15:14:38;13.13;;;9.32;;
38779;SDS011;29273;49.962;9.768;2023-02-15T15:17:05;13.32;;;9.18;;
38779;SDS011;29273;49.962;9.768;2023-02-15T15:22:31;10.98;;;7.72;;
38779;SDS011;29273;49.962;9.768;2023-02-15T15:38:24;15.82;;;10.90;;
38779;SDS011;29273;49.962;9.768;2023-02-15T15:47:15;14.52;;;9.75;;
38779;SDS011;29273;49.962;9.768;2023-02-15T15:49:58;12.95;;;9.15;;
38779;SDS011;29273;49.962;9.768;2023-02-15T15:52:25;12.95;;;8.98;;
38779;SDS011;29273;49.962;9.768;2023-02-15T15:54:53;13.20;;;9.30;;
38779;SDS011;29273;49.962;9.768;2023-02-15T15:57:29;12.68;;;8.75;;
38779;SDS011;29273;49.962;9.768;2023-02-15T15:59:56;14.48;;;10.02;;
38779;SDS011;29273;49.962;9.768;2023-02-15T16:02:25;13.52;;;9.18;;
38779;SDS011;29273;49.962;9.768;2023-02-15T16:04:51;15.82;;;10.20;;
38779;SDS011;29273;49.962;9.768;2023-02-15T16:09:56;14.75;;;9.95;;
38779;SDS011;29273;49.962;9.768;2023-02-15T16:12:30;15.80;;;10.63;;
38779;SDS011;29273;49.962;9.768;2023-02-15T16:14:58;15.88;;;10.32;;
38779;SDS011;29273;49.962;9.768;2023-02-15T16:17:38;13.85;;;9.95;;
38779;SDS011;29273;49.962;9.768;2023-02-15T16:20:15;15.57;;;10.18;;
38779;SDS011;29273;49.962;9.768;2023-02-15T16:22:45;12.73;;;8.35;;
38779;SDS011;29273;49.962;9.768;2023-02-15T16:25:16;12.20;;;9.23;;
38779;SDS011;29273;49.962;9.768;2023-02-15T16:27:52;13.98;;;9.50;;
38779;SDS011;29273;49.962;9.768;2023-02-15T16:32:54;14.43;;;9.70;;
38779;SDS011;29273;49.962;9.768;2023-02-15T16:35:27;15.07;;;9.48;;
38779;SDS011;29273;49.962;9.768;2023-02-15T16:37:53;14.77;;;9.60;;
38779;SDS011;29273;49.962;9.768;2023-02-15T16:42:53;12.43;;;8.98;;
38779;SDS011;29273;49.962;9.768;2023-02-15T16:45:23;14.80;;;9.55;;
38779;SDS011;29273;49.962;9.768;2023-02-15T16:47:52;15.23;;;10.18;;
38779;SDS011;29273;49.962;9.768;2023-02-15T16:50:27;16.70;;;10.57;;
38779;SDS011;29273;49.962;9.768;2023-02-15T16:52:57;16.13;;;10.90;;
38779;SDS011;29273;49.962;9.768;2023-02-15T16:55:25;14.43;;;9.32;;
38779;SDS011;29273;49.962;9.768;2023-02-15T16:57:59;12.88;;;8.93;;
38779;SDS011;29273;49.962;9.768;2023-02-15T17:00:30;13.68;;;9.38;;
38779;SDS011;29273;49.962;9.768;2023-02-15T17:03:00;14.48;;;9.43;;
38779;SDS011;29273;49.962;9.768;2023-02-15T17:05:44;15.38;;;10.43;;
38779;SDS011;29273;49.962;9.768;2023-02-15T17:10:46;14.82;;;9.30;;
38779;SDS011;29273;49.962;9.768;2023-02-15T17:13:28;13.90;;;9.38;;
38779;SDS011;29273;49.962;9.768;2023-02-15T17:18:29;14.38;;;9.77;;
38779;SDS011;29273;49.962;9.768;2023-02-15T17:20:58;14.77;;;9.68;;
38779;SDS011;29273;49.962;9.768;2023-02-15T17:23:30;13.80;;;9.43;;
38779;SDS011;29273;49.962;9.768;2023-02-15T17:26:22;13.73;;;9.25;;
38779;SDS011;29273;49.962;9.768;2023-02-15T17:28:55;13.18;;;8.95;;
38779;SDS011;29273;49.962;9.768;2023-02-15T17:31:25;12.45;;;8.68;;
38779;SDS011;29273;49.962;9.768;2023-02-15T17:33:55;14.35;;;9.98;;
38779;SDS011;29273;49.962;9.768;2023-02-15T17:36:24;14.85;;;9.88;;
38779;SDS011;29273;49.962;9.768;2023-02-15T17:41:22;15.38;;;10.07;;
38779;SDS011;29273;49.962;9.768;2023-02-15T17:43:48;14.27;;;10.02;;
38779;SDS011;29273;49.962;9.768;2023-02-15T17:46:14;14.10;;;9.48;;
38779;SDS011;29273;49.962;9.768;2023-02-15T17:48:41;15.68;;;10.18;;
38779;SDS011;29273;49.962;9.768;2023-02-15T17:51:09;16.17;;;10.23;;
38779;SDS011;29273;49.962;9.768;2023-02-15T17:53:37;14.73;;;10.10;;